sensor_id;sensor_type;location;lat;lon;timestamp;temperature;humidity
2757;DHT22;1386;50.862;6.494;2023-12-04T00:00:08;1.10;99.90
2757;DHT22;1386;50.862;6.494;2023-12-04T00:02:35;1.20;99.90
2757;DHT22;1386;50.862;6.494;2023-12-04T00:05:06;1.20;99.90
2757;DHT22;1386;50.862;6.494;2023-12-04T00:07:33;1.20;99.90
2757;DHT22;1386;50.862;6.494;2023-12-04T00:10:00;1.20;99.90
2757;DHT22;1386;50.862;6.494;2023-12-04T00:12:27;1.20;99.90
2757;DHT22;1386;50.862;6.494;2023-12-04T00:14:54;1.20;99.90
2757;DHT22;1386;50.862;6.494;2023-12-04T00:17:21;1.20;99.90
2757;DHT22;1386;50.862;6.494;2023-12-04T00:19:47;1.10;99.90
2757;DHT22;1386;50.862;6.494;2023-12-04T00:22:16;1.10;99.90
2757;DHT22;1386;50.862;6.494;2023-12-04T00:24:43;1.10;99.90
2757;DHT22;1386;50.862;6.494;2023-12-04T00:27:10;1.10;99.90
2757;DHT22;1386;50.862;6.494;2023-12-04T00:29:37;1.00;99.90
2757;DHT22;1386;50.862;6.494;2023-12-04T00:32:05;1.00;99.90
2757;DHT22;1386;50.862;6.494;2023-12-04T00:34:32;1.00;99.90
2757;DHT22;1386;50.862;6.494;2023-12-04T00:36:59;1.00;99.90
2757;DHT22;1386;50.862;6.494;2023-12-04T00:39:27;1.00;99.90
2757;DHT22;1386;50.862;6.494;2023-12-04T00:41:54;1.00;99.90
2757;DHT22;1386;50.862;6.494;2023-12-04T00:44:20;1.00;99.90
2757;DHT22;1386;50.862;6.494;2023-12-04T00:46:47;1.00;99.90
2757;DHT22;1386;50.862;6.494;2023-12-04T00:49:14;0.90;99.90
2757;DHT22;1386;50.862;6.494;2023-12-04T00:51:41;0.90;99.90
2757;DHT22;1386;50.862;6.494;2023-12-04T00:54:08;0.90;99.90
2757;DHT22;1386;50.862;6.494;2023-12-04T00:56:38;0.90;99.90
2757;DHT22;1386;50.862;6.494;2023-12-04T00:59:05;0.90;99.90
2757;DHT22;1386;50.862;6.494;2023-12-04T01:01:35;0.90;99.90
2757;DHT22;1386;50.862;6.494;2023-12-04T01:04:02;0.90;99.90
2757;DHT22;1386;50.862;6.494;2023-12-04T01:06:29;0.90;99.90
2757;DHT22;1386;50.862;6.494;2023-12-04T01:08:56;0.90;99.90
2757;DHT22;1386;50.862;6.494;2023-12-04T01:11:23;0.90;99.90
2757;DHT22;1386;50.862;6.494;2023-12-04T01:13:51;0.90;99.90
2757;DHT22;1386;50.862;6.494;2023-12-04T01:16:18;0.90;99.90
2757;DHT22;1386;50.862;6.494;2023-12-04T01:18:45;0.90;99.90
2757;DHT22;1386;50.862;6.494;2023-12-04T01:21:12;0.90;99.90
2757;DHT22;1386;50.862;6.494;2023-12-04T01:23:39;0.90;99.90
2757;DHT22;1386;50.862;6.494;2023-12-04T01:26:06;0.90;99.90
2757;DHT22;1386;50.862;6.494;2023-12-04T01:28:33;0.90;99.90
2757;DHT22;1386;50.862;6.494;2023-12-04T01:31:02;0.90;99.90
2757;DHT22;1386;50.862;6.494;2023-12-04T01:33:30;0.90;99.90
2757;DHT22;1386;50.862;6.494;2023-12-04T01:35:57;0.90;99.90
2757;DHT22;1386;50.862;6.494;2023-12-04T01:38:24;0.80;99.90
2757;DHT22;1386;50.862;6.494;2023-12-04T01:40:50;0.90;99.90
2757;DHT22;1386;50.862;6.494;2023-12-04T01:43:17;0.90;99.90
2757;DHT22;1386;50.862;6.494;2023-12-04T01:45:44;0.90;99.90
2757;DHT22;1386;50.862;6.494;2023-12-04T01:48:14;0.90;99.90
2757;DHT22;1386;50.862;6.494;2023-12-04T01:50:41;0.90;99.90
2757;DHT22;1386;50.862;6.494;2023-12-04T01:53:08;0.90;99.90
2757;DHT22;1386;50.862;6.494;2023-12-04T01:55:36;0.90;99.90
2757;DHT22;1386;50.862;6.494;2023-12-04T01:58:04;1.00;99.90
2757;DHT22;1386;50.862;6.494;2023-12-04T02:00:32;0.90;99.90
2757;DHT22;1386;50.862;6.494;2023-12-04T02:02:59;0.90;99.90
2757;DHT22;1386;50.862;6.494;2023-12-04T02:05:28;0.90;99.90
2757;DHT22;1386;50.862;6.494;2023-12-04T02:07:55;1.00;99.90
2757;DHT22;1386;50.862;6.494;2023-12-04T02:10:22;1.00;99.90
2757;DHT22;1386;50.862;6.494;2023-12-04T02:12:49;0.90;99.90
2757;DHT22;1386;50.862;6.494;2023-12-04T02:15:17;0.90;99.90
2757;DHT22;1386;50.862;6.494;2023-12-04T02:17:44;0.90;99.90
2757;DHT22;1386;50.862;6.494;2023-12-04T02:20:12;1.00;99.90
2757;DHT22;1386;50.862;6.494;2023-12-04T02:22:41;1.00;99.90
2757;DHT22;1386;50.862;6.494;2023-12-04T02:25:10;1.00;99.90
2757;DHT22;1386;50.862;6.494;2023-12-04T02:27:40;1.00;99.90
2757;DHT22;1386;50.862;6.494;2023-12-04T02:30:11;0.90;99.90
2757;DHT22;1386;50.862;6.494;2023-12-04T02:32:44;0.90;99.90
2757;DHT22;1386;50.862;6.494;2023-12-04T02:35:13;0.90;99.90
2757;DHT22;1386;50.862;6.494;2023-12-04T02:37:41;0.90;99.90
2757;DHT22;1386;50.862;6.494;2023-12-04T02:40:11;0.80;99.90
2757;DHT22;1386;50.862;6.494;2023-12-04T02:42:39;0.80;99.90
2757;DHT22;1386;50.862;6.494;2023-12-04T02:45:07;0.80;99.90
2757;DHT22;1386;50.862;6.494;2023-12-04T02:47:34;0.80;99.90
2757;DHT22;1386;50.862;6.494;2023-12-04T02:50:01;0.80;99.90
2757;DHT22;1386;50.862;6.494;2023-12-04T02:52:27;0.80;99.90
2757;DHT22;1386;50.862;6.494;2023-12-04T02:54:54;0.70;99.90
2757;DHT22;1386;50.862;6.494;2023-12-04T02:57:23;0.70;99.90
2757;DHT22;1386;50.862;6.494;2023-12-04T02:59:50;0.70;99.90
2757;DHT22;1386;50.862;6.494;2023-12-04T03:02:16;0.60;99.90
2757;DHT22;1386;50.862;6.494;2023-12-04T03:04:43;0.60;99.90
2757;DHT22;1386;50.862;6.494;2023-12-04T03:07:10;0.60;99.90
2757;DHT22;1386;50.862;6.494;2023-12-04T03:09:37;0.50;99.90
2757;DHT22;1386;50.862;6.494;2023-12-04T03:12:05;0.50;99.90
2757;DHT22;1386;50.862;6.494;2023-12-04T03:14:33;0.50;99.90
2757;DHT22;1386;50.862;6.494;2023-12-04T03:17:00;0.50;99.90
2757;DHT22;1386;50.862;6.494;2023-12-04T03:19:27;0.50;99.90
2757;DHT22;1386;50.862;6.494;2023-12-04T03:21:54;0.50;99.90
2757;DHT22;1386;50.862;6.494;2023-12-04T03:24:20;0.50;99.90
2757;DHT22;1386;50.862;6.494;2023-12-04T03:26:47;0.60;99.90
2757;DHT22;1386;50.862;6.494;2023-12-04T03:29:14;0.60;99.90
2757;DHT22;1386;50.862;6.494;2023-12-04T03:31:42;0.60;99.90
2757;DHT22;1386;50.862;6.494;2023-12-04T03:34:09;0.60;99.90
2757;DHT22;1386;50.862;6.494;2023-12-04T03:36:36;0.60;99.90
2757;DHT22;1386;50.862;6.494;2023-12-04T03:39:03;0.60;99.90
2757;DHT22;1386;50.862;6.494;2023-12-04T03:41:30;0.60;99.90
2757;DHT22;1386;50.862;6.494;2023-12-04T03:43:57;0.60;99.90
2757;DHT22;1386;50.862;6.494;2023-12-04T03:46:24;0.60;99.90
2757;DHT22;1386;50.862;6.494;2023-12-04T03:48:52;0.60;99.90
2757;DHT22;1386;50.862;6.494;2023-12-04T03:51:19;0.60;99.90
2757;DHT22;1386;50.862;6.494;2023-12-04T03:53:46;0.60;99.90
2757;DHT22;1386;50.862;6.494;2023-12-04T03:56:13;0.60;99.90
2757;DHT22;1386;50.862;6.494;2023-12-04T03:58:40;0.50;99.90
2757;DHT22;1386;50.862;6.494;2023-12-04T04:01:07;0.50;99.90
2757;DHT22;1386;50.862;6.494;2023-12-04T04:03:34;0.50;99.90
2757;DHT22;1386;50.862;6.494;2023-12-04T04:06:03;0.50;99.90
2757;DHT22;1386;50.862;6.494;2023-12-04T04:08:29;0.50;99.90
2757;DHT22;1386;50.862;6.494;2023-12-04T04:10:56;0.50;99.90
2757;DHT22;1386;50.862;6.494;2023-12-04T04:13:23;0.50;99.90
2757;DHT22;1386;50.862;6.494;2023-12-04T04:15:51;0.50;99.90
2757;DHT22;1386;50.862;6.494;2023-12-04T04:18:18;0.50;99.90
2757;DHT22;1386;50.862;6.494;2023-12-04T04:20:45;0.50;99.90
2757;DHT22;1386;50.862;6.494;2023-12-04T04:23:13;0.50;99.90
2757;DHT22;1386;50.862;6.494;2023-12-04T04:25:40;0.50;99.90
2757;DHT22;1386;50.862;6.494;2023-12-04T04:28:07;0.50;99.90
2757;DHT22;1386;50.862;6.494;2023-12-04T04:30:33;0.50;99.90
2757;DHT22;1386;50.862;6.494;2023-12-04T04:33:00;0.50;99.90
2757;DHT22;1386;50.862;6.494;2023-12-04T04:35:30;0.50;99.90
2757;DHT22;1386;50.862;6.494;2023-12-04T04:37:57;0.50;99.90
2757;DHT22;1386;50.862;6.494;2023-12-04T04:40:25;0.50;99.90
2757;DHT22;1386;50.862;6.494;2023-12-04T04:42:52;0.50;99.90
2757;DHT22;1386;50.862;6.494;2023-12-04T04:45:19;0.50;99.90
2757;DHT22;1386;50.862;6.494;2023-12-04T04:47:46;0.50;99.90
2757;DHT22;1386;50.862;6.494;2023-12-04T04:50:12;0.40;99.90
2757;DHT22;1386;50.862;6.494;2023-12-04T04:52:39;0.40;99.90
2757;DHT22;1386;50.862;6.494;2023-12-04T04:55:07;0.40;99.90
2757;DHT22;1386;50.862;6.494;2023-12-04T04:57:35;0.40;99.90
2757;DHT22;1386;50.862;6.494;2023-12-04T05:00:03;0.40;99.90
2757;DHT22;1386;50.862;6.494;2023-12-04T05:02:30;0.40;99.90
2757;DHT22;1386;50.862;6.494;2023-12-04T05:04:57;0.40;99.90
2757;DHT22;1386;50.862;6.494;2023-12-04T05:07:24;0.40;99.90
2757;DHT22;1386;50.862;6.494;2023-12-04T05:09:50;0.40;99.90
2757;DHT22;1386;50.862;6.494;2023-12-04T05:12:17;0.40;99.90
2757;DHT22;1386;50.862;6.494;2023-12-04T05:14:46;0.40;99.90
2757;DHT22;1386;50.862;6.494;2023-12-04T05:17:12;0.40;99.90
2757;DHT22;1386;50.862;6.494;2023-12-04T05:19:39;0.40;99.90
2757;DHT22;1386;50.862;6.494;2023-12-04T05:22:07;0.40;99.90
2757;DHT22;1386;50.862;6.494;2023-12-04T05:24:34;0.30;99.90
2757;DHT22;1386;50.862;6.494;2023-12-04T05:27:02;0.30;99.90
2757;DHT22;1386;50.862;6.494;2023-12-04T05:29:29;0.30;99.90
2757;DHT22;1386;50.862;6.494;2023-12-04T05:31:57;0.30;99.90
2757;DHT22;1386;50.862;6.494;2023-12-04T05:34:24;0.30;99.90
2757;DHT22;1386;50.862;6.494;2023-12-04T05:36:51;0.30;99.90
2757;DHT22;1386;50.862;6.494;2023-12-04T05:39:18;0.20;99.90
2757;DHT22;1386;50.862;6.494;2023-12-04T05:41:45;0.20;99.90
2757;DHT22;1386;50.862;6.494;2023-12-04T05:44:12;0.30;99.90
2757;DHT22;1386;50.862;6.494;2023-12-04T05:46:39;0.30;99.90
2757;DHT22;1386;50.862;6.494;2023-12-04T05:49:07;0.30;99.90
2757;DHT22;1386;50.862;6.494;2023-12-04T05:51:35;0.30;99.90
2757;DHT22;1386;50.862;6.494;2023-12-04T05:54:02;0.30;99.90
2757;DHT22;1386;50.862;6.494;2023-12-04T05:56:29;0.30;99.90
2757;DHT22;1386;50.862;6.494;2023-12-04T05:58:56;0.30;99.90
2757;DHT22;1386;50.862;6.494;2023-12-04T06:01:23;0.40;99.90
2757;DHT22;1386;50.862;6.494;2023-12-04T06:03:50;0.40;99.90
2757;DHT22;1386;50.862;6.494;2023-12-04T06:06:18;0.30;99.90
2757;DHT22;1386;50.862;6.494;2023-12-04T06:08:45;0.30;99.90
2757;DHT22;1386;50.862;6.494;2023-12-04T06:11:12;0.30;99.90
2757;DHT22;1386;50.862;6.494;2023-12-04T06:13:39;0.30;99.90
2757;DHT22;1386;50.862;6.494;2023-12-04T06:16:07;0.30;99.90
2757;DHT22;1386;50.862;6.494;2023-12-04T09:52:00;0.80;99.90
2757;DHT22;1386;50.862;6.494;2023-12-04T09:54:29;0.80;99.90
2757;DHT22;1386;50.862;6.494;2023-12-04T09:57:43;0.80;99.90
2757;DHT22;1386;50.862;6.494;2023-12-04T10:01:32;0.80;99.90
2757;DHT22;1386;50.862;6.494;2023-12-04T10:03:51;0.80;99.90
2757;DHT22;1386;50.862;6.494;2023-12-04T10:06:19;0.80;99.90
2757;DHT22;1386;50.862;6.494;2023-12-04T10:08:48;0.90;99.90
2757;DHT22;1386;50.862;6.494;2023-12-04T10:11:16;0.90;99.90
2757;DHT22;1386;50.862;6.494;2023-12-04T10:13:43;0.90;99.90
2757;DHT22;1386;50.862;6.494;2023-12-04T10:16:10;0.90;99.90
2757;DHT22;1386;50.862;6.494;2023-12-04T10:18:39;1.00;99.90
2757;DHT22;1386;50.862;6.494;2023-12-04T10:21:06;1.00;99.90
2757;DHT22;1386;50.862;6.494;2023-12-04T10:23:38;1.00;99.90
2757;DHT22;1386;50.862;6.494;2023-12-04T10:26:07;1.10;99.90
2757;DHT22;1386;50.862;6.494;2023-12-04T10:28:36;1.10;99.90
2757;DHT22;1386;50.862;6.494;2023-12-04T10:31:04;1.10;99.90
2757;DHT22;1386;50.862;6.494;2023-12-04T10:33:32;1.20;99.90
2757;DHT22;1386;50.862;6.494;2023-12-04T10:35:59;1.30;99.90
2757;DHT22;1386;50.862;6.494;2023-12-04T10:38:28;1.40;99.90
2757;DHT22;1386;50.862;6.494;2023-12-04T10:40:55;1.50;99.90
2757;DHT22;1386;50.862;6.494;2023-12-04T10:43:23;1.60;99.90
2757;DHT22;1386;50.862;6.494;2023-12-04T10:45:52;1.70;99.90
2757;DHT22;1386;50.862;6.494;2023-12-04T10:48:21;1.70;99.90
2757;DHT22;1386;50.862;6.494;2023-12-04T10:50:49;1.70;99.90
2757;DHT22;1386;50.862;6.494;2023-12-04T10:53:22;1.70;99.90
2757;DHT22;1386;50.862;6.494;2023-12-04T10:55:51;1.80;99.90
2757;DHT22;1386;50.862;6.494;2023-12-04T10:58:19;1.80;99.90
2757;DHT22;1386;50.862;6.494;2023-12-04T11:00:50;1.80;99.90
2757;DHT22;1386;50.862;6.494;2023-12-04T11:03:23;1.90;99.90
2757;DHT22;1386;50.862;6.494;2023-12-04T11:05:59;2.00;99.90
2757;DHT22;1386;50.862;6.494;2023-12-04T11:08:29;2.20;99.90
2757;DHT22;1386;50.862;6.494;2023-12-04T11:11:01;2.20;99.90
2757;DHT22;1386;50.862;6.494;2023-12-04T11:13:30;2.20;99.90
2757;DHT22;1386;50.862;6.494;2023-12-04T11:16:07;2.20;99.90
2757;DHT22;1386;50.862;6.494;2023-12-04T11:18:36;2.20;99.90
2757;DHT22;1386;50.862;6.494;2023-12-04T11:21:08;2.20;99.90
2757;DHT22;1386;50.862;6.494;2023-12-04T11:23:38;2.20;99.90
2757;DHT22;1386;50.862;6.494;2023-12-04T11:26:08;2.20;99.90
2757;DHT22;1386;50.862;6.494;2023-12-04T11:28:37;2.20;99.90
2757;DHT22;1386;50.862;6.494;2023-12-04T11:31:13;2.20;99.90
2757;DHT22;1386;50.862;6.494;2023-12-04T11:33:40;2.10;99.90
2757;DHT22;1386;50.862;6.494;2023-12-04T11:36:12;2.00;99.90
2757;DHT22;1386;50.862;6.494;2023-12-04T11:38:46;2.00;99.90
2757;DHT22;1386;50.862;6.494;2023-12-04T11:41:17;1.90;99.90
2757;DHT22;1386;50.862;6.494;2023-12-04T11:43:46;1.90;99.90
2757;DHT22;1386;50.862;6.494;2023-12-04T11:46:23;1.80;99.90
2757;DHT22;1386;50.862;6.494;2023-12-04T11:48:51;1.70;99.90
2757;DHT22;1386;50.862;6.494;2023-12-04T11:51:49;1.70;99.90
2757;DHT22;1386;50.862;6.494;2023-12-04T11:54:23;1.70;99.90
2757;DHT22;1386;50.862;6.494;2023-12-04T11:57:19;1.70;99.90
2757;DHT22;1386;50.862;6.494;2023-12-04T11:59:50;1.70;99.90
2757;DHT22;1386;50.862;6.494;2023-12-04T12:02:20;1.70;99.90
2757;DHT22;1386;50.862;6.494;2023-12-04T12:04:47;1.60;99.90
2757;DHT22;1386;50.862;6.494;2023-12-04T12:07:21;1.60;99.90
2757;DHT22;1386;50.862;6.494;2023-12-04T12:09:51;1.60;99.90
2757;DHT22;1386;50.862;6.494;2023-12-04T12:12:18;1.60;99.90
2757;DHT22;1386;50.862;6.494;2023-12-04T12:14:45;1.60;99.90
2757;DHT22;1386;50.862;6.494;2023-12-04T12:17:16;1.60;99.90
2757;DHT22;1386;50.862;6.494;2023-12-04T12:19:47;1.60;99.90
2757;DHT22;1386;50.862;6.494;2023-12-04T12:22:23;1.60;99.90
2757;DHT22;1386;50.862;6.494;2023-12-04T12:24:56;1.60;99.90
2757;DHT22;1386;50.862;6.494;2023-12-04T12:27:25;1.60;99.90
2757;DHT22;1386;50.862;6.494;2023-12-04T14:18:56;1.10;99.90
2757;DHT22;1386;50.862;6.494;2023-12-04T14:21:23;1.20;99.90
2757;DHT22;1386;50.862;6.494;2023-12-04T14:23:50;1.10;99.90
2757;DHT22;1386;50.862;6.494;2023-12-04T14:26:17;1.20;99.90
2757;DHT22;1386;50.862;6.494;2023-12-04T14:28:44;1.20;99.90
2757;DHT22;1386;50.862;6.494;2023-12-04T14:31:12;1.20;99.90
2757;DHT22;1386;50.862;6.494;2023-12-04T14:33:39;1.20;99.90
2757;DHT22;1386;50.862;6.494;2023-12-04T14:36:10;1.20;99.90
2757;DHT22;1386;50.862;6.494;2023-12-04T14:38:38;1.10;99.90
2757;DHT22;1386;50.862;6.494;2023-12-04T14:41:32;1.10;99.90
2757;DHT22;1386;50.862;6.494;2023-12-04T14:44:04;1.10;99.90
2757;DHT22;1386;50.862;6.494;2023-12-04T14:46:36;1.10;99.90
2757;DHT22;1386;50.862;6.494;2023-12-04T14:49:06;1.10;99.90
2757;DHT22;1386;50.862;6.494;2023-12-04T14:51:41;1.00;99.90
2757;DHT22;1386;50.862;6.494;2023-12-04T14:54:14;1.00;99.90
2757;DHT22;1386;50.862;6.494;2023-12-04T14:57:03;1.00;99.90
2757;DHT22;1386;50.862;6.494;2023-12-04T15:00:07;1.30;99.90
2757;DHT22;1386;50.862;6.494;2023-12-04T15:02:54;1.10;99.90
2757;DHT22;1386;50.862;6.494;2023-12-04T15:06:04;1.10;99.90
2757;DHT22;1386;50.862;6.494;2023-12-04T15:09:02;1.10;99.90
2757;DHT22;1386;50.862;6.494;2023-12-04T15:12:07;1.10;99.90
2757;DHT22;1386;50.862;6.494;2023-12-04T15:14:46;1.10;99.90
2757;DHT22;1386;50.862;6.494;2023-12-04T15:17:18;1.10;99.90
2757;DHT22;1386;50.862;6.494;2023-12-04T15:19:55;1.00;99.90
2757;DHT22;1386;50.862;6.494;2023-12-04T15:22:45;1.00;99.90
2757;DHT22;1386;50.862;6.494;2023-12-04T15:25:14;1.10;99.90
2757;DHT22;1386;50.862;6.494;2023-12-04T15:27:53;1.10;99.90
2757;DHT22;1386;50.862;6.494;2023-12-04T15:30:27;1.10;99.90
2757;DHT22;1386;50.862;6.494;2023-12-04T15:32:54;1.00;99.90
2757;DHT22;1386;50.862;6.494;2023-12-04T15:35:22;1.00;99.90
2757;DHT22;1386;50.862;6.494;2023-12-04T15:37:49;1.00;99.90
2757;DHT22;1386;50.862;6.494;2023-12-04T15:40:16;1.00;99.90
2757;DHT22;1386;50.862;6.494;2023-12-04T15:42:43;1.00;99.90
2757;DHT22;1386;50.862;6.494;2023-12-04T15:45:10;1.00;99.90
2757;DHT22;1386;50.862;6.494;2023-12-04T15:47:36;1.00;99.90
2757;DHT22;1386;50.862;6.494;2023-12-04T15:50:03;1.00;99.90
2757;DHT22;1386;50.862;6.494;2023-12-04T15:52:33;1.00;99.90
2757;DHT22;1386;50.862;6.494;2023-12-04T15:54:59;1.00;99.90
2757;DHT22;1386;50.862;6.494;2023-12-04T15:57:27;1.10;99.90
2757;DHT22;1386;50.862;6.494;2023-12-04T15:59:54;1.10;99.90
2757;DHT22;1386;50.862;6.494;2023-12-04T16:02:21;1.10;99.90
2757;DHT22;1386;50.862;6.494;2023-12-04T16:04:48;1.10;99.90
2757;DHT22;1386;50.862;6.494;2023-12-04T16:07:15;1.10;99.90
2757;DHT22;1386;50.862;6.494;2023-12-04T16:09:42;1.10;99.90
2757;DHT22;1386;50.862;6.494;2023-12-04T16:12:09;1.10;99.90
2757;DHT22;1386;50.862;6.494;2023-12-04T16:14:38;1.10;99.90
2757;DHT22;1386;50.862;6.494;2023-12-04T16:17:05;1.10;99.90
2757;DHT22;1386;50.862;6.494;2023-12-04T16:19:33;1.10;99.90
2757;DHT22;1386;50.862;6.494;2023-12-04T16:22:02;1.10;99.90
2757;DHT22;1386;50.862;6.494;2023-12-04T16:24:30;1.10;99.90
2757;DHT22;1386;50.862;6.494;2023-12-04T16:26:58;1.10;99.90
2757;DHT22;1386;50.862;6.494;2023-12-04T16:29:26;1.10;99.90
2757;DHT22;1386;50.862;6.494;2023-12-04T16:32:00;1.10;99.90
2757;DHT22;1386;50.862;6.494;2023-12-04T16:34:28;1.10;99.90
2757;DHT22;1386;50.862;6.494;2023-12-04T16:36:56;1.10;99.90
2757;DHT22;1386;50.862;6.494;2023-12-04T16:39:24;1.10;99.90
2757;DHT22;1386;50.862;6.494;2023-12-04T16:41:52;1.10;99.90
2757;DHT22;1386;50.862;6.494;2023-12-04T16:44:20;1.20;99.90
2757;DHT22;1386;50.862;6.494;2023-12-04T16:46:47;1.10;99.90
2757;DHT22;1386;50.862;6.494;2023-12-04T16:49:16;1.10;99.90
2757;DHT22;1386;50.862;6.494;2023-12-04T16:51:43;1.20;99.90
2757;DHT22;1386;50.862;6.494;2023-12-04T16:54:10;1.20;99.90
2757;DHT22;1386;50.862;6.494;2023-12-04T16:56:38;1.10;99.90
2757;DHT22;1386;50.862;6.494;2023-12-04T16:59:06;1.10;99.90
2757;DHT22;1386;50.862;6.494;2023-12-04T17:01:33;1.20;99.90
2757;DHT22;1386;50.862;6.494;2023-12-04T17:04:00;1.10;99.90
2757;DHT22;1386;50.862;6.494;2023-12-04T17:06:29;1.10;99.90
2757;DHT22;1386;50.862;6.494;2023-12-04T17:08:56;1.10;99.90
2757;DHT22;1386;50.862;6.494;2023-12-04T17:11:23;1.00;99.90
2757;DHT22;1386;50.862;6.494;2023-12-04T17:13:50;1.10;99.90
2757;DHT22;1386;50.862;6.494;2023-12-04T17:16:17;1.10;99.90
2757;DHT22;1386;50.862;6.494;2023-12-04T17:18:45;1.10;99.90
2757;DHT22;1386;50.862;6.494;2023-12-04T17:21:13;1.10;99.90
2757;DHT22;1386;50.862;6.494;2023-12-04T17:23:41;1.10;99.90
2757;DHT22;1386;50.862;6.494;2023-12-04T17:26:09;1.10;99.90
2757;DHT22;1386;50.862;6.494;2023-12-04T17:28:36;1.10;99.90
2757;DHT22;1386;50.862;6.494;2023-12-04T17:31:03;1.10;99.90
2757;DHT22;1386;50.862;6.494;2023-12-04T17:33:32;1.10;99.90
2757;DHT22;1386;50.862;6.494;2023-12-04T17:35:59;1.10;99.90
2757;DHT22;1386;50.862;6.494;2023-12-04T17:38:27;1.10;99.90
2757;DHT22;1386;50.862;6.494;2023-12-04T17:41:00;1.10;99.90
2757;DHT22;1386;50.862;6.494;2023-12-04T17:43:28;1.10;99.90
2757;DHT22;1386;50.862;6.494;2023-12-04T17:45:57;1.10;99.90
2757;DHT22;1386;50.862;6.494;2023-12-04T17:48:24;1.00;99.90
2757;DHT22;1386;50.862;6.494;2023-12-04T17:50:51;1.00;99.90
2757;DHT22;1386;50.862;6.494;2023-12-04T17:53:18;1.10;99.90
2757;DHT22;1386;50.862;6.494;2023-12-04T17:55:45;1.00;99.90
2757;DHT22;1386;50.862;6.494;2023-12-04T17:58:14;1.00;99.90
2757;DHT22;1386;50.862;6.494;2023-12-04T18:00:43;1.10;99.90
2757;DHT22;1386;50.862;6.494;2023-12-04T18:03:10;1.10;99.90
2757;DHT22;1386;50.862;6.494;2023-12-04T18:05:39;1.10;99.90
2757;DHT22;1386;50.862;6.494;2023-12-04T18:08:06;1.00;99.90
2757;DHT22;1386;50.862;6.494;2023-12-04T18:10:33;1.10;99.90
2757;DHT22;1386;50.862;6.494;2023-12-04T18:13:00;1.00;99.90
2757;DHT22;1386;50.862;6.494;2023-12-04T18:15:29;1.00;99.90
2757;DHT22;1386;50.862;6.494;2023-12-04T18:17:56;1.00;99.90
2757;DHT22;1386;50.862;6.494;2023-12-04T18:20:23;1.10;99.90
2757;DHT22;1386;50.862;6.494;2023-12-04T18:22:50;1.10;99.90
2757;DHT22;1386;50.862;6.494;2023-12-04T18:25:18;1.10;99.90
2757;DHT22;1386;50.862;6.494;2023-12-04T18:27:45;1.10;99.90
2757;DHT22;1386;50.862;6.494;2023-12-04T18:30:13;1.10;99.90
2757;DHT22;1386;50.862;6.494;2023-12-04T18:32:44;1.10;99.90
2757;DHT22;1386;50.862;6.494;2023-12-04T18:35:15;1.10;99.90
2757;DHT22;1386;50.862;6.494;2023-12-04T18:37:54;1.10;99.90
2757;DHT22;1386;50.862;6.494;2023-12-04T18:40:23;1.10;99.90
2757;DHT22;1386;50.862;6.494;2023-12-04T18:42:50;1.10;99.90
2757;DHT22;1386;50.862;6.494;2023-12-04T18:45:19;1.10;99.90
2757;DHT22;1386;50.862;6.494;2023-12-04T18:47:53;1.10;99.90
2757;DHT22;1386;50.862;6.494;2023-12-04T18:50:50;1.10;99.90
2757;DHT22;1386;50.862;6.494;2023-12-04T18:53:44;1.20;99.90
2757;DHT22;1386;50.862;6.494;2023-12-04T18:56:11;1.20;99.90
2757;DHT22;1386;50.862;6.494;2023-12-04T18:58:39;1.20;99.90
2757;DHT22;1386;50.862;6.494;2023-12-04T19:01:08;1.20;99.90
2757;DHT22;1386;50.862;6.494;2023-12-04T19:03:44;1.20;99.90
2757;DHT22;1386;50.862;6.494;2023-12-04T19:06:11;1.20;99.90
2757;DHT22;1386;50.862;6.494;2023-12-04T19:08:38;1.20;99.90
2757;DHT22;1386;50.862;6.494;2023-12-04T19:11:06;1.20;99.90
2757;DHT22;1386;50.862;6.494;2023-12-04T19:13:33;1.20;99.90
2757;DHT22;1386;50.862;6.494;2023-12-04T19:16:00;1.20;99.90
2757;DHT22;1386;50.862;6.494;2023-12-04T19:18:27;1.20;99.90
2757;DHT22;1386;50.862;6.494;2023-12-04T19:20:56;1.20;99.90
2757;DHT22;1386;50.862;6.494;2023-12-04T19:23:24;1.20;99.90
2757;DHT22;1386;50.862;6.494;2023-12-04T19:25:51;1.30;99.90
2757;DHT22;1386;50.862;6.494;2023-12-04T19:28:18;1.30;99.90
2757;DHT22;1386;50.862;6.494;2023-12-04T19:30:45;1.30;99.90
2757;DHT22;1386;50.862;6.494;2023-12-04T19:33:12;1.30;99.90
2757;DHT22;1386;50.862;6.494;2023-12-04T19:35:40;1.30;99.90
2757;DHT22;1386;50.862;6.494;2023-12-04T19:38:09;1.30;99.90
2757;DHT22;1386;50.862;6.494;2023-12-04T19:40:36;1.30;99.90
2757;DHT22;1386;50.862;6.494;2023-12-04T19:43:02;1.30;99.90
2757;DHT22;1386;50.862;6.494;2023-12-04T19:45:30;1.30;99.90
2757;DHT22;1386;50.862;6.494;2023-12-04T19:47:57;1.30;99.90
2757;DHT22;1386;50.862;6.494;2023-12-04T19:50:24;1.30;99.90
2757;DHT22;1386;50.862;6.494;2023-12-04T19:52:51;1.30;99.90
2757;DHT22;1386;50.862;6.494;2023-12-04T19:55:19;1.30;99.90
2757;DHT22;1386;50.862;6.494;2023-12-04T19:57:46;1.30;99.90
2757;DHT22;1386;50.862;6.494;2023-12-04T20:00:14;1.30;99.90
2757;DHT22;1386;50.862;6.494;2023-12-04T20:02:43;1.30;99.90
2757;DHT22;1386;50.862;6.494;2023-12-04T20:05:12;1.30;99.90
2757;DHT22;1386;50.862;6.494;2023-12-04T20:07:39;1.30;99.90
2757;DHT22;1386;50.862;6.494;2023-12-04T20:10:06;1.40;99.90
2757;DHT22;1386;50.862;6.494;2023-12-04T20:12:35;1.40;99.90
2757;DHT22;1386;50.862;6.494;2023-12-04T20:15:02;1.40;99.90
2757;DHT22;1386;50.862;6.494;2023-12-04T20:17:30;1.40;99.90
2757;DHT22;1386;50.862;6.494;2023-12-04T20:19:57;1.40;99.90
2757;DHT22;1386;50.862;6.494;2023-12-04T20:22:24;1.40;99.90
2757;DHT22;1386;50.862;6.494;2023-12-04T20:24:51;1.40;99.90
2757;DHT22;1386;50.862;6.494;2023-12-04T20:27:18;1.40;99.90
2757;DHT22;1386;50.862;6.494;2023-12-04T20:29:46;1.50;99.90
2757;DHT22;1386;50.862;6.494;2023-12-04T20:32:14;1.50;99.90
2757;DHT22;1386;50.862;6.494;2023-12-04T20:34:41;1.50;99.90
2757;DHT22;1386;50.862;6.494;2023-12-04T20:37:08;1.50;99.90
2757;DHT22;1386;50.862;6.494;2023-12-04T20:39:36;1.40;99.90
2757;DHT22;1386;50.862;6.494;2023-12-04T20:42:05;1.40;99.90
2757;DHT22;1386;50.862;6.494;2023-12-04T20:44:32;1.50;99.90
2757;DHT22;1386;50.862;6.494;2023-12-04T20:47:06;1.50;99.90
2757;DHT22;1386;50.862;6.494;2023-12-04T20:49:33;1.50;99.90
2757;DHT22;1386;50.862;6.494;2023-12-04T20:52:00;1.50;99.90
2757;DHT22;1386;50.862;6.494;2023-12-04T20:54:29;1.50;99.90
2757;DHT22;1386;50.862;6.494;2023-12-04T20:56:56;1.50;99.90
2757;DHT22;1386;50.862;6.494;2023-12-04T20:59:23;1.50;99.90
2757;DHT22;1386;50.862;6.494;2023-12-04T21:01:50;1.60;99.90
2757;DHT22;1386;50.862;6.494;2023-12-04T21:04:19;1.60;99.90
2757;DHT22;1386;50.862;6.494;2023-12-04T21:06:45;1.60;99.90
2757;DHT22;1386;50.862;6.494;2023-12-04T21:09:13;1.60;99.90
2757;DHT22;1386;50.862;6.494;2023-12-04T21:11:39;1.60;99.90
2757;DHT22;1386;50.862;6.494;2023-12-04T21:14:06;1.60;99.90
2757;DHT22;1386;50.862;6.494;2023-12-04T21:16:35;1.60;99.90
2757;DHT22;1386;50.862;6.494;2023-12-04T21:19:03;1.60;99.90
2757;DHT22;1386;50.862;6.494;2023-12-04T21:21:32;1.60;99.90
2757;DHT22;1386;50.862;6.494;2023-12-04T21:23:59;1.60;99.90
2757;DHT22;1386;50.862;6.494;2023-12-04T21:26:26;1.60;99.90
2757;DHT22;1386;50.862;6.494;2023-12-04T21:28:53;1.70;99.90
2757;DHT22;1386;50.862;6.494;2023-12-04T21:31:22;1.70;99.90
2757;DHT22;1386;50.862;6.494;2023-12-04T21:33:51;1.70;99.90
2757;DHT22;1386;50.862;6.494;2023-12-04T21:36:18;1.70;99.90
2757;DHT22;1386;50.862;6.494;2023-12-04T21:38:46;1.70;99.90
2757;DHT22;1386;50.862;6.494;2023-12-04T21:41:13;1.70;99.90
2757;DHT22;1386;50.862;6.494;2023-12-04T21:43:40;1.70;99.90
2757;DHT22;1386;50.862;6.494;2023-12-04T21:46:07;1.70;99.90
2757;DHT22;1386;50.862;6.494;2023-12-04T21:48:34;1.80;99.90
2757;DHT22;1386;50.862;6.494;2023-12-04T21:51:02;1.80;99.90